Time;durP1;ratioP1;P1;durP2;ratioP2;P2;SDS_P1;SDS_P2;PMS_P1;PMS_P2;Temp;Humidity;BMP_temperature;BMP_pressure;BME280_temperature;BME280_humidity;BME280_pressure;Samples;Min_cycle;Max_cycle;Signal;HPM_P1;HPM_P2
2021/04/07 00:01:48;;;;;;;12.65;1.90;;;;;;;-1.43;100.00;99719.16;5059602;28;20090;-80
2021/04/07 00:04:13;;;;;;;8.82;1.60;;;;;;;-1.37;100.00;99719.25;5041695;28;20044;-80
2021/04/07 00:06:40;;;;;;;16.50;2.22;;;;;;;-1.43;100.00;99717.47;5041835;28;20391;-80
2021/04/07 00:09:07;;;;;;;13.25;1.83;;;;;;;-1.44;100.00;99714.91;5059039;28;20024;-80
2021/04/07 00:11:32;;;;;;;8.05;1.60;;;;;;;-1.32;100.00;99712.56;5041097;28;20040;-80
2021/04/07 00:13:59;;;;;;;11.93;2.53;;;;;;;-1.30;100.00;99718.50;5041111;28;20024;-80
2021/04/07 00:16:25;;;;;;;13.90;2.03;;;;;;;-1.27;100.00;99718.56;5041312;28;20025;-80
2021/04/07 00:18:50;;;;;;;13.45;2.47;;;;;;;-1.22;100.00;99723.72;5041105;28;20020;-80
2021/04/07 00:21:15;;;;;;;16.88;1.77;;;;;;;-1.21;100.00;99726.28;5041209;28;20025;-80
2021/04/07 00:23:41;;;;;;;10.75;1.95;;;;;;;-1.26;100.00;99730.47;5043279;28;20025;-80
2021/04/07 00:26:06;;;;;;;20.75;2.15;;;;;;;-1.30;100.00;99733.78;5042685;28;20028;-80
2021/04/07 00:28:32;;;;;;;14.43;2.20;;;;;;;-1.33;100.00;99735.41;5060850;28;20447;-80
2021/04/07 00:30:58;;;;;;;10.00;1.65;;;;;;;-1.34;100.00;99734.56;5041930;28;20033;-80
2021/04/07 00:33:24;;;;;;;9.95;2.00;;;;;;;-1.31;100.00;99728.69;5060144;28;20025;-80
2021/04/07 00:35:49;;;;;;;14.20;2.28;;;;;;;-1.25;100.00;99733.84;5040442;28;20366;-80
2021/04/07 00:38:15;;;;;;;15.25;1.88;;;;;;;-1.23;100.00;99735.59;5042448;28;20031;-81
2021/04/07 00:40:40;;;;;;;13.18;2.63;;;;;;;-1.25;100.00;99733.84;5041776;28;20036;-80
2021/04/07 00:43:06;;;;;;;8.05;1.92;;;;;;;-1.26;100.00;99727.91;5041159;28;20469;-81
2021/04/07 00:45:32;;;;;;;10.35;1.90;;;;;;;-1.32;100.00;99725.28;5060553;28;20031;-81
2021/04/07 00:47:57;;;;;;;13.35;2.28;;;;;;;-1.43;100.00;99726.78;5044098;28;20016;-81
2021/04/07 00:50:26;;;;;;;16.20;2.40;;;;;;;-1.52;100.00;99729.16;5043295;28;20032;-81
2021/04/07 00:52:52;;;;;;;13.88;2.70;;;;;;;-1.62;100.00;99729.00;5060941;28;20054;-81
2021/04/07 00:55:18;;;;;;;10.68;2.78;;;;;;;-1.60;100.00;99734.13;5042503;28;20119;-81
2021/04/07 00:57:45;;;;;;;12.45;1.92;;;;;;;-1.63;100.00;99742.56;5062170;28;20075;-81
2021/04/07 01:00:12;;;;;;;14.57;2.03;;;;;;;-1.64;100.00;99743.38;5061611;28;20059;-81
2021/04/07 01:02:38;;;;;;;10.80;1.55;;;;;;;-1.70;100.00;99740.72;5060931;28;20079;-81
2021/04/07 01:05:05;;;;;;;14.25;2.13;;;;;;;-1.77;100.00;99736.38;5045941;28;20028;-81
2021/04/07 01:07:31;;;;;;;14.48;2.13;;;;;;;-1.79;100.00;99743.09;5044879;28;20025;-81
2021/04/07 01:09:56;;;;;;;18.95;2.03;;;;;;;-1.81;100.00;99742.22;5042426;28;20051;-81
2021/04/07 01:12:22;;;;;;;14.20;2.08;;;;;;;-1.72;100.00;99737.31;5040584;28;20021;-81
2021/04/07 01:14:47;;;;;;;8.13;1.63;;;;;;;-1.80;100.00;99736.31;5041155;28;20040;-81
2021/04/07 01:17:13;;;;;;;16.17;2.00;;;;;;;-1.77;100.00;99738.91;5059036;28;20032;-81
2021/04/07 01:19:38;;;;;;;11.05;2.10;;;;;;;-1.77;100.00;99741.44;5058446;28;20013;-81
2021/04/07 01:22:04;;;;;;;13.85;2.40;;;;;;;-1.79;100.00;99739.69;5041245;28;20028;-81
2021/04/07 01:24:31;;;;;;;19.00;2.30;;;;;;;-1.80;100.00;99738.00;5059051;28;20021;-81
2021/04/07 01:26:57;;;;;;;14.70;2.17;;;;;;;-1.88;100.00;99741.25;5039724;28;20025;-81
2021/04/07 01:29:22;;;;;;;13.10;2.03;;;;;;;-1.89;100.00;99743.75;5039726;28;20036;-81
2021/04/07 01:31:49;;;;;;;9.60;1.92;;;;;;;-1.89;100.00;99738.69;5058716;28;20028;-81
2021/04/07 01:34:29;;;;;;;12.65;2.00;;;;;;;-1.92;100.00;99739.47;5041165;28;20067;-81
2021/04/07 01:36:57;;;;;;;13.45;2.08;;;;;;;-1.93;100.00;99749.63;5040979;28;20504;-81
2021/04/07 01:39:24;;;;;;;10.52;2.30;;;;;;;-1.95;100.00;99744.50;5058625;28;20033;-81
2021/04/07 01:41:50;;;;;;;14.80;1.85;;;;;;;-1.92;100.00;99746.25;5058769;28;20033;-81
2021/04/07 01:44:17;;;;;;;13.23;1.75;;;;;;;-1.94;100.00;99750.44;5040248;28;20025;-81
2021/04/07 01:46:44;;;;;;;13.73;2.33;;;;;;;-1.92;100.00;99743.72;5039690;28;20044;-81
2021/04/07 01:49:11;;;;;;;17.20;1.88;;;;;;;-1.96;100.00;99750.41;5058139;28;20044;-81
2021/04/07 01:51:36;;;;;;;16.98;3.25;;;;;;;-1.96;100.00;99747.03;5058578;28;20055;-81
2021/04/07 01:54:04;;;;;;;11.93;1.75;;;;;;;-2.02;100.00;99741.81;5040903;28;20082;-81
2021/04/07 01:56:30;;;;;;;10.05;2.15;;;;;;;-2.00;100.00;99743.56;5040369;28;20078;-81
2021/04/07 01:59:00;;;;;;;11.80;1.60;;;;;;;-2.03;100.00;99742.63;5058331;28;20473;-81
2021/04/07 02:01:26;;;;;;;14.57;2.17;;;;;;;-2.02;100.00;99744.38;5039784;28;20021;-81
2021/04/07 02:03:51;;;;;;;18.08;2.55;;;;;;;-2.03;100.00;99746.06;5040090;28;20028;-81
2021/04/07 02:06:16;;;;;;;10.70;2.17;;;;;;;-2.08;100.00;99742.56;5039711;28;20032;-81
2021/04/07 02:08:42;;;;;;;14.68;2.30;;;;;;;-2.06;100.00;99742.56;5038950;28;20052;-81
2021/04/07 02:11:07;;;;;;;14.35;1.80;;;;;;;-2.02;100.00;99739.28;5057663;28;20028;-81
2021/04/07 02:16:57;;;;;;;9.35;1.77;;;;;;;-1.99;100.00;99746.97;5057216;28;20040;-81
2021/04/07 02:19:23;;;;;;;11.95;2.28;;;;;;;-1.91;100.00;99751.38;5039562;28;20020;-81
2021/04/07 02:22:10;;;;;;;14.50;2.15;;;;;;;-1.90;100.00;99752.22;5039433;28;20031;-81
2021/04/07 02:24:40;;;;;;;12.57;2.00;;;;;;;-1.89;100.00;99757.31;5039002;28;20035;-81
2021/04/07 02:27:22;;;;;;;13.65;1.90;;;;;;;-1.87;100.00;99760.75;5039882;28;20587;-81
2021/04/07 02:29:50;;;;;;;18.25;2.10;;;;;;;-1.91;100.00;99750.50;5039588;28;20036;-81
2021/04/07 02:32:15;;;;;;;12.65;1.60;;;;;;;-1.93;100.00;99747.09;5039628;28;20032;-81
2021/04/07 02:34:43;;;;;;;11.02;1.92;;;;;;;-1.95;100.00;99753.81;5039488;28;20029;-81
2021/04/07 02:37:09;;;;;;;18.10;2.45;;;;;;;-1.99;100.00;99757.13;5039581;28;20025;-81
2021/04/07 02:39:35;;;;;;;15.07;2.38;;;;;;;-1.95;100.00;99761.44;5039538;28;20025;-81
2021/04/07 02:42:01;;;;;;;10.82;1.77;;;;;;;-1.96;100.00;99760.59;5057835;28;20393;-81
2021/04/07 02:44:26;;;;;;;14.02;2.00;;;;;;;-1.90;100.00;99765.78;5039024;28;20020;-81
2021/04/07 02:46:51;;;;;;;13.50;2.22;;;;;;;-1.91;100.00;99758.13;5039298;28;20024;-81
2021/04/07 02:49:17;;;;;;;13.00;2.13;;;;;;;-1.95;100.00;99759.75;5039043;28;20029;-81
2021/04/07 02:51:42;;;;;;;9.13;1.60;;;;;;;-1.94;100.00;99753.84;5040154;28;20025;-81
2021/04/07 02:54:07;;;;;;;16.30;2.03;;;;;;;-1.94;100.00;99768.22;5057925;28;20068;-81
2021/04/07 02:56:33;;;;;;;19.20;1.90;;;;;;;-1.97;100.00;99758.00;5039360;28;20370;-81
2021/04/07 02:58:59;;;;;;;12.45;2.22;;;;;;;-2.03;100.00;99748.59;5056879;28;20028;-81
2021/04/07 03:01:25;;;;;;;17.77;2.15;;;;;;;-1.97;100.00;99768.16;5057816;28;20036;-81
2021/04/07 03:03:50;;;;;;;13.23;1.80;;;;;;;-1.92;100.00;99748.78;5039580;28;20029;-81
2021/04/07 03:06:15;;;;;;;9.43;1.60;;;;;;;-1.93;100.00;99753.03;5039040;28;20063;-81
2021/04/07 03:08:41;;;;;;;10.60;1.50;;;;;;;-1.98;100.00;99753.75;5039496;28;20499;-81
2021/04/07 03:11:06;;;;;;;15.40;1.90;;;;;;;-2.08;100.00;99752.72;5039046;28;20082;-81
2021/04/07 03:13:32;;;;;;;10.18;1.85;;;;;;;-2.08;100.00;99758.66;5057828;28;20020;-81
2021/04/07 03:15:57;;;;;;;14.00;2.25;;;;;;;-2.10;100.00;99755.22;5057638;28;20116;-81
2021/04/07 03:18:22;;;;;;;12.57;1.90;;;;;;;-2.17;100.00;99763.56;5039438;28;20053;-81
2021/04/07 03:20:47;;;;;;;12.77;2.35;;;;;;;-2.23;100.00;99768.50;5039856;28;20028;-81
2021/04/07 03:23:13;;;;;;;16.08;1.77;;;;;;;-2.23;100.00;99758.34;5057561;28;20028;-81
2021/04/07 03:25:38;;;;;;;12.80;2.10;;;;;;;-2.23;100.00;99770.19;5039049;28;20432;-81
2021/04/07 03:28:03;;;;;;;8.23;1.92;;;;;;;-2.25;100.00;99770.16;5039267;28;20021;-81
2021/04/07 03:30:48;;;;;;;9.88;1.75;;;;;;;-2.24;100.00;99771.88;5056971;28;20033;-81
2021/04/07 03:33:13;;;;;;;10.25;2.35;;;;;;;-2.26;100.00;99765.06;5038852;28;20029;-81
2021/04/07 03:35:38;;;;;;;13.85;3.40;;;;;;;-2.22;100.00;99771.91;5057301;28;20506;-81
2021/04/07 03:38:03;;;;;;;15.50;2.45;;;;;;;-2.27;100.00;99773.50;5038578;28;20033;-81
2021/04/07 03:40:29;;;;;;;12.93;2.50;;;;;;;-2.35;100.00;99760.63;5038577;28;20031;-81
2021/04/07 03:42:54;;;;;;;24.58;3.17;;;;;;;-2.39;100.00;99764.78;5056393;28;20032;-81
2021/04/07 03:45:19;;;;;;;8.63;2.72;;;;;;;-2.37;100.00;99765.69;5038633;28;20089;-81
2021/04/07 03:47:45;;;;;;;17.88;3.50;;;;;;;-2.38;100.00;99770.72;5038961;28;20021;-81
2021/04/07 03:50:11;;;;;;;14.30;2.83;;;;;;;-2.37;100.00;99764.81;5038391;28;20041;-82
2021/04/07 03:52:36;;;;;;;15.85;3.15;;;;;;;-2.39;100.00;99762.25;5056789;28;20028;-81
2021/04/07 03:55:02;;;;;;;14.88;3.58;;;;;;;-2.46;100.00;99775.66;5038184;28;20029;-81
2021/04/07 03:57:28;;;;;;;12.45;3.28;;;;;;;-2.45;100.00;99776.50;5038695;28;20036;-81
2021/04/07 03:59:53;;;;;;;14.07;3.40;;;;;;;-2.49;100.00;99777.25;5056016;28;20013;-81
2021/04/07 04:02:18;;;;;;;21.70;3.55;;;;;;;-2.53;100.00;99776.31;5038063;28;20048;-81
2021/04/07 04:04:44;;;;;;;13.55;3.92;;;;;;;-2.51;100.00;99781.47;5037939;28;20366;-81
2021/04/07 04:07:09;;;;;;;16.90;2.92;;;;;;;-2.44;100.00;99785.84;5038040;28;20088;-81
2021/04/07 04:09:34;;;;;;;13.35;3.80;;;;;;;-2.39;100.00;99792.72;5041047;28;20029;-81
2021/04/07 04:11:59;;;;;;;13.25;3.40;;;;;;;-2.32;100.00;99783.56;5059847;28;20025;-82
2021/04/07 04:14:24;;;;;;;16.90;3.90;;;;;;;-2.36;100.00;99794.47;5041559;28;20032;-81
2021/04/07 04:16:50;;;;;;;17.45;3.78;;;;;;;-2.33;100.00;99792.00;5060340;28;20036;-81
2021/04/07 04:19:15;;;;;;;16.13;3.72;;;;;;;-2.33;100.00;99786.94;5060320;28;20017;-81
2021/04/07 04:21:40;;;;;;;16.00;3.33;;;;;;;-2.32;100.00;99791.16;5042607;28;20025;-82
2021/04/07 04:24:06;;;;;;;11.82;3.08;;;;;;;-2.32;100.00;99798.78;5042175;28;20037;-82
2021/04/07 04:26:31;;;;;;;22.42;3.85;;;;;;;-2.30;100.00;99794.63;5041887;28;20499;-82
2021/04/07 04:28:56;;;;;;;10.63;2.88;;;;;;;-2.32;100.00;99804.72;5059219;28;20033;-81
2021/04/07 04:31:22;;;;;;;11.02;2.75;;;;;;;-2.29;100.00;99813.25;5059064;28;20039;-81
2021/04/07 04:33:47;;;;;;;13.43;2.80;;;;;;;-2.33;100.00;99809.78;5058680;28;20100;-81
2021/04/07 04:36:12;;;;;;;12.13;2.58;;;;;;;-2.38;100.00;99807.13;5040938;28;20032;-81
2021/04/07 04:38:37;;;;;;;11.48;3.33;;;;;;;-2.43;100.00;99813.81;5059701;28;20563;-81
2021/04/07 04:41:03;;;;;;;10.32;2.65;;;;;;;-2.40;100.00;99810.47;5043390;28;20033;-80
2021/04/07 04:43:28;;;;;;;14.90;2.17;;;;;;;-2.46;100.00;99812.84;5043353;28;20112;-80
2021/04/07 04:45:53;;;;;;;12.55;2.58;;;;;;;-2.45;100.00;99818.00;5043745;28;20021;-81
2021/04/07 04:48:18;;;;;;;11.40;2.20;;;;;;;-2.42;100.00;99819.75;5062270;28;20017;-81
2021/04/07 04:50:44;;;;;;;8.70;3.17;;;;;;;-2.42;100.00;99818.06;5044150;28;20053;-80
2021/04/07 04:53:09;;;;;;;12.27;2.17;;;;;;;-2.39;100.00;99813.03;5061808;28;20037;-81
2021/04/07 04:55:34;;;;;;;15.65;3.15;;;;;;;-2.37;100.00;99819.03;5062371;28;20040;-81
2021/04/07 04:57:59;;;;;;;11.60;2.22;;;;;;;-2.34;100.00;99824.16;5043844;28;20077;-81
2021/04/07 05:00:25;;;;;;;13.20;2.20;;;;;;;-2.29;100.00;99821.72;5062319;28;20086;-81
2021/04/07 05:02:50;;;;;;;16.88;2.47;;;;;;;-2.17;100.00;99821.97;5044374;28;20032;-81
2021/04/07 05:05:15;;;;;;;12.63;2.10;;;;;;;-2.11;100.00;99824.66;5062287;28;20029;-81
2021/04/07 05:07:41;;;;;;;17.13;2.15;;;;;;;-2.06;100.00;99817.13;5062188;28;20067;-80
2021/04/07 05:10:07;;;;;;;10.55;2.20;;;;;;;-2.04;100.00;99822.22;5043436;28;20028;-81
2021/04/07 05:12:32;;;;;;;13.68;2.10;;;;;;;-1.97;100.00;99819.88;5043787;28;20035;-81
2021/04/07 05:14:58;;;;;;;10.52;2.25;;;;;;;-1.94;100.00;99819.03;5063302;28;20025;-80
2021/04/07 05:17:23;;;;;;;15.65;2.10;;;;;;;-1.95;100.00;99819.88;5043446;28;20032;-81
2021/04/07 05:19:49;;;;;;;15.85;2.15;;;;;;;-1.83;100.00;99827.75;5061066;28;20111;-81
2021/04/07 05:22:14;;;;;;;15.20;1.80;;;;;;;-1.82;100.00;99832.00;5060128;28;20075;-80
2021/04/07 05:24:39;;;;;;;15.07;2.20;;;;;;;-1.73;100.00;99831.31;5064900;28;20105;-81
2021/04/07 05:27:05;;;;;;;12.73;1.92;;;;;;;-1.69;100.00;99833.13;5047356;28;20060;-81
2021/04/07 05:29:30;;;;;;;10.75;2.17;;;;;;;-1.74;100.00;99834.69;5064178;28;20021;-81
2021/04/07 05:31:55;;;;;;;14.02;2.22;;;;;;;-1.66;100.00;99839.13;5065267;28;20074;-82
2021/04/07 05:34:21;;;;;;;14.40;2.78;;;;;;;-1.57;100.00;99842.63;5047018;28;20033;-81
2021/04/07 05:36:46;;;;;;;12.07;1.98;;;;;;;-1.46;100.00;99841.16;5062642;28;20094;-81
2021/04/07 05:39:12;;;;;;;9.50;1.95;;;;;;;-1.62;100.00;99835.78;5063593;28;20040;-81
2021/04/07 05:41:37;;;;;;;10.77;2.30;;;;;;;-1.50;100.00;99836.88;5046633;28;20029;-81
2021/04/07 05:44:02;;;;;;;14.73;2.47;;;;;;;-1.48;100.00;99835.19;5064743;28;20040;-81
2021/04/07 05:46:28;;;;;;;13.77;2.30;;;;;;;-1.46;100.00;99839.47;5064651;28;20028;-81
2021/04/07 05:48:54;;;;;;;11.90;3.13;;;;;;;-1.38;100.00;99837.09;5064057;28;20029;-81
2021/04/07 05:51:19;;;;;;;12.75;2.50;;;;;;;-1.36;100.00;99840.50;5063819;28;20040;-82
2021/04/07 05:53:44;;;;;;;11.73;2.50;;;;;;;-1.28;100.00;99846.59;5045843;28;20587;-81
2021/04/07 05:56:09;;;;;;;11.23;2.10;;;;;;;-1.21;100.00;99850.09;5063273;28;20057;-81
2021/04/07 05:58:34;;;;;;;19.80;3.08;;;;;;;-1.11;100.00;99853.66;5045685;28;20032;-81
2021/04/07 06:01:00;;;;;;;9.35;2.42;;;;;;;-1.14;100.00;99848.50;5044918;28;20033;-81
2021/04/07 06:03:25;;;;;;;11.30;2.17;;;;;;;-0.60;100.00;99852.81;5062978;28;20103;-81
2021/04/07 06:05:51;;;;;;;10.98;2.50;;;;;;;-0.44;96.75;99847.09;5044371;28;20481;-81
2021/04/07 06:08:17;;;;;;;11.95;2.90;;;;;;;-0.65;97.96;99855.25;5044620;28;20061;-81
2021/04/07 06:10:44;;;;;;;14.30;2.92;;;;;;;-0.98;99.62;99853.06;5045599;28;20021;-81
2021/04/07 06:13:10;;;;;;;12.25;2.97;;;;;;;-0.79;99.26;99859.31;5046027;28;20028;-81
2021/04/07 06:15:37;;;;;;;9.65;2.45;;;;;;;-0.84;98.36;99854.13;5064002;28;20032;-81
2021/04/07 06:18:05;;;;;;;11.45;2.47;;;;;;;-0.82;98.75;99859.25;5045444;28;20163;-81
2021/04/07 06:20:33;;;;;;;9.20;2.38;;;;;;;-0.98;98.80;99865.78;5045477;28;20100;-81
2021/04/07 06:23:00;;;;;;;11.43;2.47;;;;;;;-0.42;95.92;99870.91;5044978;28;20027;-81
2021/04/07 06:25:27;;;;;;;14.95;3.45;;;;;;;-0.28;95.83;99868.56;5043904;28;20056;-81
2021/04/07 06:27:55;;;;;;;15.48;3.05;;;;;;;-0.64;96.97;99872.28;5045085;28;20021;-81
2021/04/07 06:30:40;;;;;;;10.23;2.95;;;;;;;-0.52;96.89;99869.91;5044180;28;20017;-81
2021/04/07 06:33:07;;;;;;;13.05;2.90;;;;;;;-0.74;97.88;99880.56;5043454;28;20025;-81
2021/04/07 06:35:33;;;;;;;14.82;3.47;;;;;;;-0.87;98.01;99878.66;5044963;28;20025;-81
2021/04/07 06:37:59;;;;;;;16.10;4.43;;;;;;;-0.70;98.28;99880.66;5062198;28;20040;-81
2021/04/07 06:40:25;;;;;;;14.07;3.55;;;;;;;-0.64;97.56;99887.56;5045253;28;20023;-81
2021/04/07 06:42:50;;;;;;;11.27;3.55;;;;;;;-0.95;98.46;99886.19;5044552;28;20020;-81
2021/04/07 06:45:16;;;;;;;11.07;3.30;;;;;;;-0.82;99.00;99892.34;5062842;28;20083;-81
2021/04/07 06:47:41;;;;;;;12.18;3.05;;;;;;;-0.79;97.87;99890.69;5043835;28;20017;-81
2021/04/07 06:50:07;;;;;;;10.75;3.72;;;;;;;-0.87;99.72;99894.78;5062181;28;20025;-81
2021/04/07 06:52:33;;;;;;;10.88;4.10;;;;;;;-0.73;98.83;99895.03;5043790;28;20029;-81
2021/04/07 06:54:58;;;;;;;15.77;3.75;;;;;;;-0.89;99.33;99891.38;5062649;28;20096;-82
2021/04/07 06:57:23;;;;;;;11.52;3.50;;;;;;;-0.86;99.40;99888.00;5043947;28;20025;-82
2021/04/07 06:59:49;;;;;;;9.98;3.05;;;;;;;-0.89;100.00;99890.50;5045030;28;20031;-82
2021/04/07 07:02:15;;;;;;;16.65;3.67;;;;;;;-0.86;100.00;99893.09;5062457;28;20477;-82
2021/04/07 07:04:40;;;;;;;8.07;3.00;;;;;;;-0.94;100.00;99882.81;5041446;28;20029;-82
2021/04/07 07:07:06;;;;;;;10.30;3.17;;;;;;;-0.63;99.79;99886.72;5060149;28;20032;-82
2021/04/07 07:09:32;;;;;;;10.63;3.05;;;;;;;-0.84;100.00;99882.13;5061748;28;20084;-82
2021/04/07 07:11:58;;;;;;;8.93;2.30;;;;;;;-0.62;100.00;99892.66;5045917;28;20025;-82
2021/04/07 07:14:24;;;;;;;9.52;2.40;;;;;;;-0.59;100.00;99887.63;5045190;28;20043;-82
2021/04/07 07:16:51;;;;;;;14.70;2.88;;;;;;;-0.59;99.90;99898.66;5044980;28;20024;-82
2021/04/07 07:19:22;;;;;;;10.43;2.33;;;;;;;-0.58;100.00;99902.94;5044497;28;20021;-82
2021/04/07 07:22:00;;;;;;;9.85;2.25;;;;;;;-0.61;100.00;99902.88;5042598;28;20025;-82
2021/04/07 07:24:31;;;;;;;7.95;2.40;;;;;;;-0.43;99.91;99893.81;5061933;28;20021;-82
2021/04/07 07:26:57;;;;;;;12.85;2.22;;;;;;;-0.50;99.24;99895.41;5044403;28;20047;-82
2021/04/07 07:29:25;;;;;;;7.55;1.90;;;;;;;-0.43;100.00;99904.00;5044011;28;20032;-83
2021/04/07 07:32:04;;;;;;;8.43;2.35;;;;;;;-0.19;98.71;99906.06;5061339;28;20081;-83
2021/04/07 07:34:30;;;;;;;8.45;2.22;;;;;;;-0.37;98.88;99904.09;5061718;28;20425;-83
2021/04/07 07:36:57;;;;;;;9.80;2.28;;;;;;;-0.23;99.17;99905.16;5060875;28;20031;-83
2021/04/07 07:39:24;;;;;;;9.95;2.60;;;;;;;-0.12;98.23;99908.72;5060492;28;20031;-83
2021/04/07 07:41:49;;;;;;;6.78;2.10;;;;;;;-0.29;98.98;99911.00;5043151;28;20035;-83
2021/04/07 07:44:16;;;;;;;8.30;3.22;;;;;;;-0.17;99.14;99910.34;5045898;28;20483;-83
2021/04/07 07:46:41;;;;;;;11.65;2.17;;;;;;;-0.30;99.50;99919.50;5066560;28;20029;-83
2021/04/07 07:49:19;;;;;;;8.68;2.85;;;;;;;-0.33;100.00;99924.56;5049777;28;20447;-83
2021/04/07 07:51:45;;;;;;;8.27;2.42;;;;;;;-0.56;100.00;99925.88;5050196;28;20055;-83
2021/04/07 07:54:15;;;;;;;9.50;2.70;;;;;;;-0.52;100.00;99923.41;5066377;28;20473;-83
2021/04/07 07:56:40;;;;;;;9.45;2.55;;;;;;;-0.56;100.00;99930.97;5065669;28;20035;-83
2021/04/07 07:59:06;;;;;;;7.13;2.10;;;;;;;-0.43;100.00;99917.59;5049143;28;20056;-83
2021/04/07 08:01:50;;;;;;;7.13;1.92;;;;;;;-0.51;100.00;99924.25;5048182;28;20086;-83
2021/04/07 08:04:15;;;;;;;8.43;2.22;;;;;;;-0.24;100.00;99919.59;5047394;28;20033;-83
2021/04/07 08:06:40;;;;;;;9.35;2.33;;;;;;;-0.11;100.00;99920.63;5047386;28;20032;-84
2021/04/07 08:09:06;;;;;;;11.10;2.60;;;;;;;-0.18;100.00;99920.53;5049814;28;20132;-83
2021/04/07 08:11:33;;;;;;;11.60;3.08;;;;;;;-0.21;100.00;99920.50;5047475;28;20084;-83
2021/04/07 08:14:00;;;;;;;9.05;2.80;;;;;;;0.05;99.62;99924.25;5046181;28;20036;-83
2021/04/07 08:16:27;;;;;;;10.68;3.13;;;;;;;0.12;99.72;99922.63;5046572;28;20016;-83
2021/04/07 08:18:53;;;;;;;10.55;3.63;;;;;;;0.01;99.83;99922.50;5044587;28;20116;-83
2021/04/07 08:21:20;;;;;;;8.68;3.75;;;;;;;0.15;99.96;99920.97;5045089;28;20025;-84
2021/04/07 08:23:51;;;;;;;10.45;4.30;;;;;;;0.09;100.00;99918.34;5045276;28;20021;-84
2021/04/07 08:26:20;;;;;;;11.52;4.70;;;;;;;0.36;98.74;99919.56;5047702;28;20029;-83
2021/04/07 08:28:45;;;;;;;11.93;5.40;;;;;;;0.12;100.00;99920.94;5064402;28;20028;-83
2021/04/07 08:31:13;;;;;;;11.18;5.90;;;;;;;0.16;100.00;99921.88;5062387;28;20021;-84
2021/04/07 08:33:38;;;;;;;11.63;5.35;;;;;;;0.16;100.00;99922.72;5063167;28;20059;-84
2021/04/07 08:36:04;;;;;;;10.48;4.82;;;;;;;0.03;100.00;99920.81;5045592;28;20028;-84
2021/04/07 08:38:30;;;;;;;12.75;5.03;;;;;;;0.19;100.00;99922.75;5044401;28;20033;-83
2021/04/07 08:41:07;;;;;;;9.50;4.43;;;;;;;0.01;100.00;99919.09;5044950;28;20032;-83
2021/04/07 08:43:33;;;;;;;12.23;4.30;;;;;;;0.25;100.00;99928.75;5045777;28;20027;-83
2021/04/07 08:46:10;;;;;;;11.80;4.40;;;;;;;0.30;100.00;99925.44;5047206;28;20027;-84
2021/04/07 08:48:37;;;;;;;9.77;4.15;;;;;;;0.20;100.00;99921.06;5063271;28;20021;-83
2021/04/07 08:51:05;;;;;;;6.90;3.10;;;;;;;0.24;99.88;99927.91;5063498;28;20035;-83
2021/04/07 08:53:32;;;;;;;9.40;2.78;;;;;;;0.20;100.00;99932.09;5045407;28;20017;-83
2021/04/07 08:56:07;;;;;;;9.98;3.60;;;;;;;0.27;100.00;99937.28;5044790;28;20029;-83
2021/04/07 08:58:32;;;;;;;;;;;;;;;0.33;100.00;99939.94;5064305;28;20021;-83
2021/04/07 09:00:58;;;;;;;7.30;2.90;;;;;;;0.16;100.00;99929.50;5064550;28;19916;-83
2021/04/07 09:03:30;;;;;;;8.38;2.55;;;;;;;0.26;100.00;99944.09;5046368;28;20021;-83
2021/04/07 09:05:55;;;;;;;8.65;2.80;;;;;;;0.47;99.14;99938.41;5049465;28;20032;-83
2021/04/07 09:08:26;;;;;;;9.43;2.88;;;;;;;0.55;99.15;99936.78;5046395;28;20048;-83
2021/04/07 09:10:53;;;;;;;9.23;3.45;;;;;;;0.28;100.00;99944.97;5043920;28;20037;-83
2021/04/07 09:13:27;;;;;;;9.48;2.70;;;;;;;0.67;98.63;99942.03;5042969;28;20024;-83
2021/04/07 09:16:01;;;;;;;6.88;2.72;;;;;;;0.60;98.80;99941.97;5044526;28;20057;-83
2021/04/07 09:18:40;;;;;;;7.00;2.30;;;;;;;0.53;98.33;99945.31;5044859;28;20032;-82
2021/04/07 09:21:15;;;;;;;6.53;2.28;;;;;;;0.74;98.13;99945.56;5062761;28;20021;-82
2021/04/07 09:23:40;;;;;;;6.97;2.38;;;;;;;0.83;97.49;99950.75;5045131;28;20025;-83
2021/04/07 09:26:10;;;;;;;8.70;2.65;;;;;;;0.78;97.01;99939.63;5064885;28;20032;-82
2021/04/07 09:28:37;;;;;;;9.35;2.50;;;;;;;1.37;95.61;99936.81;5047371;28;20032;-83
2021/04/07 09:31:26;;;;;;;6.35;2.22;;;;;;;1.17;95.30;99947.69;5063553;28;20021;-83
2021/04/07 09:33:55;;;;;;;5.68;1.70;;;;;;;1.57;92.84;99936.13;5044107;28;20033;-84
2021/04/07 09:36:27;;;;;;;5.20;2.13;;;;;;;1.73;92.52;99939.69;5062408;28;20028;-84
2021/04/07 09:38:55;;;;;;;6.53;2.20;;;;;;;1.20;95.34;99942.59;5063426;28;20040;-83
2021/04/07 09:41:23;;;;;;;7.85;1.98;;;;;;;1.23;95.14;99942.63;5046132;28;20021;-83
2021/04/07 09:43:49;;;;;;;5.47;2.08;;;;;;;1.34;95.27;99948.72;5046251;28;20021;-83
2021/04/07 09:46:14;;;;;;;5.55;1.90;;;;;;;1.72;93.74;99949.03;5066282;28;20426;-83
2021/04/07 09:48:47;;;;;;;5.85;1.75;;;;;;;1.69;93.28;99935.38;5048933;28;20079;-83
2021/04/07 09:51:15;;;;;;;5.43;1.60;;;;;;;1.20;95.42;99934.94;5062453;28;20085;-83
2021/04/07 09:53:40;;;;;;;4.65;1.90;;;;;;;1.30;96.81;99942.72;5061884;28;20021;-83
2021/04/07 09:56:06;;;;;;;4.50;1.95;;;;;;;1.16;97.50;99944.28;5063030;28;20063;-83
2021/04/07 09:58:41;;;;;;;8.38;1.70;;;;;;;1.23;98.49;99940.09;5044106;28;20040;-83
2021/04/07 10:01:07;;;;;;;6.45;1.70;;;;;;;1.34;96.65;99931.69;5044342;28;20614;-83
2021/04/07 10:03:32;;;;;;;7.38;2.08;;;;;;;1.36;96.77;99932.56;5044476;28;20056;-83
2021/04/07 10:05:57;;;;;;;6.13;2.00;;;;;;;1.29;97.53;99938.47;5045437;28;20032;-83
2021/04/07 10:08:24;;;;;;;5.90;1.73;;;;;;;1.34;96.48;99936.78;5048833;28;20021;-83
2021/04/07 10:10:49;;;;;;;5.60;1.63;;;;;;;1.17;97.06;99934.91;5046527;28;20034;-83
2021/04/07 10:13:15;;;;;;;4.05;1.65;;;;;;;1.55;96.44;99937.84;5045503;28;20024;-83
2021/04/07 10:15:40;;;;;;;3.67;1.42;;;;;;;1.49;96.29;99941.19;5045071;28;20029;-83
2021/04/07 10:18:11;;;;;;;6.85;2.33;;;;;;;1.41;97.41;99942.81;5044900;28;20396;-83
2021/04/07 10:20:38;;;;;;;5.03;1.80;;;;;;;1.44;96.55;99944.53;5063794;28;20020;-83
2021/04/07 10:23:08;;;;;;;6.55;2.15;;;;;;;1.48;96.57;99939.50;5045832;28;20025;-83
2021/04/07 10:25:34;;;;;;;4.78;1.83;;;;;;;1.70;95.97;99937.09;5045989;28;20028;-83
2021/04/07 10:27:59;;;;;;;6.10;1.88;;;;;;;2.29;93.53;99934.06;5048112;28;20084;-83
2021/04/07 10:30:26;;;;;;;3.85;1.50;;;;;;;3.40;87.36;99927.56;5049551;28;20470;-82
2021/04/07 10:32:55;;;;;;;6.45;1.80;;;;;;;4.61;82.83;99917.91;5044279;28;20089;-83
2021/04/07 10:35:25;;;;;;;4.32;1.60;;;;;;;5.73;79.46;99922.34;5044708;28;20036;-83
2021/04/07 10:37:54;;;;;;;4.28;1.50;;;;;;;5.03;80.24;99921.16;5061260;28;20032;-82
2021/04/07 10:40:25;;;;;;;5.22;1.67;;;;;;;6.29;75.83;99908.97;5061808;23;20041;-76
2021/04/07 10:42:50;;;;;;;3.95;1.80;;;;;;;6.00;77.14;99912.69;5035873;28;20052;-76
2021/04/07 10:45:18;;;;;;;9.00;1.67;;;;;;;5.66;78.68;99918.09;5035738;28;20481;-76
2021/04/07 10:47:44;;;;;;;3.80;1.38;;;;;;;5.06;82.86;99920.28;5053279;28;20040;-77
2021/04/07 10:50:10;;;;;;;4.70;1.50;;;;;;;4.28;82.42;99913.78;5035875;28;20029;-78
2021/04/07 10:52:41;;;;;;;5.40;1.60;;;;;;;3.93;86.11;99922.41;5035479;28;20028;-77
2021/04/07 10:55:27;;;;;;;4.40;1.90;;;;;;;3.78;87.21;99922.41;5036419;28;20025;-76
2021/04/07 10:57:55;;;;;;;4.93;1.77;;;;;;;3.51;89.38;99933.56;5035853;28;20428;-77
2021/04/07 11:00:30;;;;;;;5.00;1.80;;;;;;;3.70;89.44;99926.72;5053574;28;20021;-77
2021/04/07 11:02:56;;;;;;;4.38;1.70;;;;;;;3.68;89.18;99926.72;5035737;28;20036;-78
2021/04/07 11:05:23;;;;;;;6.13;1.75;;;;;;;3.61;89.41;99929.28;5053988;28;20107;-78
2021/04/07 11:08:04;;;;;;;5.65;2.10;;;;;;;3.72;90.28;99932.69;5053952;28;20100;-78
2021/04/07 11:10:47;;;;;;;7.75;2.58;;;;;;;3.78;91.40;99934.41;5036118;28;20047;-78
2021/04/07 11:13:14;;;;;;;8.95;2.20;;;;;;;3.75;88.36;99934.41;5053395;28;20065;-79
2021/04/07 11:15:40;;;;;;;6.80;1.75;;;;;;;3.64;87.10;99929.28;5035749;28;20040;-79
2021/04/07 11:18:08;;;;;;;5.32;1.70;;;;;;;3.99;87.42;99926.66;5054556;28;20390;-79
2021/04/07 11:20:36;;;;;;;7.22;2.00;;;;;;;4.06;87.51;99927.50;5040184;28;20031;-78
2021/04/07 11:23:01;;;;;;;5.53;1.95;;;;;;;4.29;87.00;99924.91;5043065;28;20021;-77
2021/04/07 11:25:27;;;;;;;5.97;2.05;;;;;;;4.35;86.96;99918.03;5043143;28;20028;-77
2021/04/07 11:27:57;;;;;;;6.13;1.95;;;;;;;4.09;89.27;99922.38;5040499;28;20041;-77
2021/04/07 11:30:22;;;;;;;6.43;2.10;;;;;;;3.80;90.78;99917.31;5039581;28;20440;-77